sensor_id;sensor_type;location;lat;lon;timestamp;P1;durP1;ratioP1;P2;durP2;ratioP2
70683;SDS011;58263;48.146;11.440;2022-08-19T00:01:33;4.97;;;3.50;;
70683;SDS011;58263;48.146;11.440;2022-08-19T00:04:01;4.40;;;3.67;;
70683;SDS011;58263;48.146;11.440;2022-08-19T00:06:28;5.63;;;3.60;;
70683;SDS011;58263;48.146;11.440;2022-08-19T00:08:55;5.07;;;4.20;;
70683;SDS011;58263;48.146;11.440;2022-08-19T00:11:21;5.78;;;4.03;;
70683;SDS011;58263;48.146;11.440;2022-08-19T00:13:46;6.32;;;4.78;;
70683;SDS011;58263;48.146;11.440;2022-08-19T00:16:13;7.10;;;4.60;;
70683;SDS011;58263;48.146;11.440;2022-08-19T00:18:39;5.80;;;4.43;;
70683;SDS011;58263;48.146;11.440;2022-08-19T00:21:04;6.82;;;4.57;;
70683;SDS011;58263;48.146;11.440;2022-08-19T00:23:32;7.00;;;4.97;;
70683;SDS011;58263;48.146;11.440;2022-08-19T00:25:59;7.93;;;4.90;;
70683;SDS011;58263;48.146;11.440;2022-08-19T00:28:25;7.38;;;5.05;;
70683;SDS011;58263;48.146;11.440;2022-08-19T00:30:50;6.77;;;4.97;;
70683;SDS011;58263;48.146;11.440;2022-08-19T00:33:16;6.45;;;4.88;;
70683;SDS011;58263;48.146;11.440;2022-08-19T00:35:42;7.07;;;5.20;;
70683;SDS011;58263;48.146;11.440;2022-08-19T00:38:07;7.47;;;5.20;;
70683;SDS011;58263;48.146;11.440;2022-08-19T00:40:32;8.90;;;4.90;;
70683;SDS011;58263;48.146;11.440;2022-08-19T00:42:58;7.35;;;5.30;;
70683;SDS011;58263;48.146;11.440;2022-08-19T00:45:25;7.93;;;5.60;;
70683;SDS011;58263;48.146;11.440;2022-08-19T00:47:52;8.85;;;5.35;;
70683;SDS011;58263;48.146;11.440;2022-08-19T00:50:18;6.60;;;5.47;;
70683;SDS011;58263;48.146;11.440;2022-08-19T00:52:47;7.00;;;5.25;;
70683;SDS011;58263;48.146;11.440;2022-08-19T00:55:18;7.82;;;6.20;;
70683;SDS011;58263;48.146;11.440;2022-08-19T00:57:48;7.78;;;5.45;;
70683;SDS011;58263;48.146;11.440;2022-08-19T01:00:17;9.13;;;5.57;;
70683;SDS011;58263;48.146;11.440;2022-08-19T01:02:44;10.43;;;6.18;;
70683;SDS011;58263;48.146;11.440;2022-08-19T01:05:11;10.20;;;6.18;;
70683;SDS011;58263;48.146;11.440;2022-08-19T01:07:40;8.75;;;6.05;;
70683;SDS011;58263;48.146;11.440;2022-08-19T01:10:07;7.40;;;6.20;;
70683;SDS011;58263;48.146;11.440;2022-08-19T01:12:36;9.30;;;6.35;;
70683;SDS011;58263;48.146;11.440;2022-08-19T01:15:02;8.45;;;6.45;;
70683;SDS011;58263;48.146;11.440;2022-08-19T01:17:28;9.05;;;6.90;;
70683;SDS011;58263;48.146;11.440;2022-08-19T01:19:54;8.38;;;6.30;;
70683;SDS011;58263;48.146;11.440;2022-08-19T01:24:48;9.43;;;6.32;;
70683;SDS011;58263;48.146;11.440;2022-08-19T01:27:14;9.75;;;6.10;;
70683;SDS011;58263;48.146;11.440;2022-08-19T01:29:40;8.85;;;6.63;;
70683;SDS011;58263;48.146;11.440;2022-08-19T01:32:07;9.13;;;6.88;;
70683;SDS011;58263;48.146;11.440;2022-08-19T01:34:36;9.32;;;6.72;;
70683;SDS011;58263;48.146;11.440;2022-08-19T01:37:05;9.15;;;6.63;;
70683;SDS011;58263;48.146;11.440;2022-08-19T01:39:33;10.43;;;7.18;;
70683;SDS011;58263;48.146;11.440;2022-08-19T01:41:58;8.75;;;6.03;;
70683;SDS011;58263;48.146;11.440;2022-08-19T01:44:27;9.65;;;7.00;;
70683;SDS011;58263;48.146;11.440;2022-08-19T01:46:53;9.80;;;6.78;;
70683;SDS011;58263;48.146;11.440;2022-08-19T01:49:19;9.75;;;6.60;;
70683;SDS011;58263;48.146;11.440;2022-08-19T01:54:13;8.90;;;6.07;;
70683;SDS011;58263;48.146;11.440;2022-08-19T01:56:40;9.80;;;6.50;;
70683;SDS011;58263;48.146;11.440;2022-08-19T01:59:10;7.72;;;5.85;;
70683;SDS011;58263;48.146;11.440;2022-08-19T02:01:38;8.25;;;5.97;;
70683;SDS011;58263;48.146;11.440;2022-08-19T02:04:04;8.70;;;6.00;;
70683;SDS011;58263;48.146;11.440;2022-08-19T02:06:30;7.32;;;5.68;;
70683;SDS011;58263;48.146;11.440;2022-08-19T02:08:56;8.32;;;5.35;;
70683;SDS011;58263;48.146;11.440;2022-08-19T02:11:26;9.38;;;5.25;;
70683;SDS011;58263;48.146;11.440;2022-08-19T02:13:55;8.65;;;5.50;;
70683;SDS011;58263;48.146;11.440;2022-08-19T02:16:20;7.85;;;5.28;;
70683;SDS011;58263;48.146;11.440;2022-08-19T02:18:46;6.85;;;5.22;;
70683;SDS011;58263;48.146;11.440;2022-08-19T02:21:20;6.53;;;4.90;;
70683;SDS011;58263;48.146;11.440;2022-08-19T02:23:46;8.70;;;5.40;;
70683;SDS011;58263;48.146;11.440;2022-08-19T02:26:12;6.68;;;4.72;;
70683;SDS011;58263;48.146;11.440;2022-08-19T02:28:38;6.95;;;4.88;;
70683;SDS011;58263;48.146;11.440;2022-08-19T02:31:08;5.97;;;4.20;;
70683;SDS011;58263;48.146;11.440;2022-08-19T02:33:39;7.72;;;4.60;;
70683;SDS011;58263;48.146;11.440;2022-08-19T02:36:05;6.82;;;5.03;;
70683;SDS011;58263;48.146;11.440;2022-08-19T02:38:32;7.32;;;5.03;;
70683;SDS011;58263;48.146;11.440;2022-08-19T02:40:59;5.72;;;4.55;;
70683;SDS011;58263;48.146;11.440;2022-08-19T02:43:26;6.30;;;4.22;;
70683;SDS011;58263;48.146;11.440;2022-08-19T02:45:52;8.25;;;4.80;;
70683;SDS011;58263;48.146;11.440;2022-08-19T02:48:19;6.85;;;4.50;;
70683;SDS011;58263;48.146;11.440;2022-08-19T02:50:46;8.35;;;5.15;;
70683;SDS011;58263;48.146;11.440;2022-08-19T02:53:15;5.70;;;4.70;;
70683;SDS011;58263;48.146;11.440;2022-08-19T02:55:44;6.90;;;4.83;;
70683;SDS011;58263;48.146;11.440;2022-08-19T02:58:11;6.38;;;4.95;;
70683;SDS011;58263;48.146;11.440;2022-08-19T03:00:41;7.78;;;5.13;;
70683;SDS011;58263;48.146;11.440;2022-08-19T03:03:08;5.85;;;4.25;;
70683;SDS011;58263;48.146;11.440;2022-08-19T03:05:33;5.70;;;4.30;;
70683;SDS011;58263;48.146;11.440;2022-08-19T03:07:59;6.10;;;4.60;;
70683;SDS011;58263;48.146;11.440;2022-08-19T03:10:24;6.35;;;4.47;;
70683;SDS011;58263;48.146;11.440;2022-08-19T03:12:49;5.60;;;4.50;;
70683;SDS011;58263;48.146;11.440;2022-08-19T03:15:15;6.03;;;4.60;;
70683;SDS011;58263;48.146;11.440;2022-08-19T03:17:40;6.07;;;4.27;;
70683;SDS011;58263;48.146;11.440;2022-08-19T03:20:05;7.53;;;4.53;;
70683;SDS011;58263;48.146;11.440;2022-08-19T03:22:31;6.78;;;4.70;;
70683;SDS011;58263;48.146;11.440;2022-08-19T03:24:57;5.45;;;3.70;;
70683;SDS011;58263;48.146;11.440;2022-08-19T03:27:24;6.18;;;4.70;;
70683;SDS011;58263;48.146;11.440;2022-08-19T03:29:49;5.50;;;4.30;;
70683;SDS011;58263;48.146;11.440;2022-08-19T03:32:15;7.15;;;5.63;;
70683;SDS011;58263;48.146;11.440;2022-08-19T03:34:40;5.23;;;3.87;;
70683;SDS011;58263;48.146;11.440;2022-08-19T03:37:07;5.90;;;4.33;;
70683;SDS011;58263;48.146;11.440;2022-08-19T03:42:00;5.75;;;4.53;;
70683;SDS011;58263;48.146;11.440;2022-08-19T03:44:27;6.90;;;4.28;;
70683;SDS011;58263;48.146;11.440;2022-08-19T03:46:55;7.30;;;4.85;;
70683;SDS011;58263;48.146;11.440;2022-08-19T03:49:23;7.53;;;4.90;;
70683;SDS011;58263;48.146;11.440;2022-08-19T03:51:50;6.63;;;4.63;;
70683;SDS011;58263;48.146;11.440;2022-08-19T03:54:17;6.30;;;4.63;;
70683;SDS011;58263;48.146;11.440;2022-08-19T03:56:45;6.85;;;4.85;;
70683;SDS011;58263;48.146;11.440;2022-08-19T03:59:13;7.10;;;5.07;;
70683;SDS011;58263;48.146;11.440;2022-08-19T04:01:42;8.27;;;5.07;;
70683;SDS011;58263;48.146;11.440;2022-08-19T04:04:08;9.25;;;5.53;;
70683;SDS011;58263;48.146;11.440;2022-08-19T04:06:34;7.97;;;5.35;;
70683;SDS011;58263;48.146;11.440;2022-08-19T04:09:03;7.90;;;4.90;;
70683;SDS011;58263;48.146;11.440;2022-08-19T04:11:33;7.22;;;5.28;;
70683;SDS011;58263;48.146;11.440;2022-08-19T04:14:00;9.98;;;6.15;;
70683;SDS011;58263;48.146;11.440;2022-08-19T04:16:26;8.02;;;5.75;;
70683;SDS011;58263;48.146;11.440;2022-08-19T04:18:53;8.70;;;5.28;;
70683;SDS011;58263;48.146;11.440;2022-08-19T04:21:21;10.38;;;6.15;;
70683;SDS011;58263;48.146;11.440;2022-08-19T04:23:50;8.73;;;5.78;;
70683;SDS011;58263;48.146;11.440;2022-08-19T04:26:18;7.20;;;5.32;;
70683;SDS011;58263;48.146;11.440;2022-08-19T04:28:48;7.40;;;5.28;;
70683;SDS011;58263;48.146;11.440;2022-08-19T04:31:18;8.50;;;5.93;;
70683;SDS011;58263;48.146;11.440;2022-08-19T04:33:46;8.98;;;5.82;;
70683;SDS011;58263;48.146;11.440;2022-08-19T04:36:22;7.53;;;6.07;;
70683;SDS011;58263;48.146;11.440;2022-08-19T04:38:50;7.88;;;5.70;;
70683;SDS011;58263;48.146;11.440;2022-08-19T04:41:18;8.50;;;6.03;;
70683;SDS011;58263;48.146;11.440;2022-08-19T04:44:02;8.35;;;6.25;;
70683;SDS011;58263;48.146;11.440;2022-08-19T04:46:28;9.88;;;6.50;;
70683;SDS011;58263;48.146;11.440;2022-08-19T04:48:57;10.77;;;6.30;;
70683;SDS011;58263;48.146;11.440;2022-08-19T04:51:24;8.20;;;5.82;;
70683;SDS011;58263;48.146;11.440;2022-08-19T04:53:50;10.65;;;7.03;;
70683;SDS011;58263;48.146;11.440;2022-08-19T04:56:17;10.15;;;6.82;;
70683;SDS011;58263;48.146;11.440;2022-08-19T04:58:45;13.13;;;7.60;;
70683;SDS011;58263;48.146;11.440;2022-08-19T05:01:12;9.70;;;6.13;;
70683;SDS011;58263;48.146;11.440;2022-08-19T05:03:42;9.90;;;6.28;;
70683;SDS011;58263;48.146;11.440;2022-08-19T05:06:09;8.32;;;6.07;;
70683;SDS011;58263;48.146;11.440;2022-08-19T05:08:38;8.82;;;5.85;;
70683;SDS011;58263;48.146;11.440;2022-08-19T05:11:15;10.48;;;6.43;;
70683;SDS011;58263;48.146;11.440;2022-08-19T05:13:50;9.05;;;5.70;;
70683;SDS011;58263;48.146;11.440;2022-08-19T05:16:18;9.23;;;6.10;;
70683;SDS011;58263;48.146;11.440;2022-08-19T05:18:44;8.88;;;6.13;;
70683;SDS011;58263;48.146;11.440;2022-08-19T05:21:29;8.70;;;6.18;;
70683;SDS011;58263;48.146;11.440;2022-08-19T05:24:14;9.02;;;5.88;;
70683;SDS011;58263;48.146;11.440;2022-08-19T05:26:45;11.25;;;6.25;;
70683;SDS011;58263;48.146;11.440;2022-08-19T05:29:14;8.88;;;6.22;;
70683;SDS011;58263;48.146;11.440;2022-08-19T05:31:41;9.82;;;5.78;;
70683;SDS011;58263;48.146;11.440;2022-08-19T05:34:07;8.88;;;6.25;;
70683;SDS011;58263;48.146;11.440;2022-08-19T05:36:34;10.90;;;6.82;;
70683;SDS011;58263;48.146;11.440;2022-08-19T05:39:04;10.27;;;7.15;;
70683;SDS011;58263;48.146;11.440;2022-08-19T05:41:29;11.55;;;7.10;;
70683;SDS011;58263;48.146;11.440;2022-08-19T05:44:00;9.52;;;6.68;;
70683;SDS011;58263;48.146;11.440;2022-08-19T05:46:27;10.07;;;6.93;;
70683;SDS011;58263;48.146;11.440;2022-08-19T05:48:53;9.75;;;6.63;;
70683;SDS011;58263;48.146;11.440;2022-08-19T05:51:21;10.18;;;7.00;;
70683;SDS011;58263;48.146;11.440;2022-08-19T05:53:47;9.40;;;7.30;;
70683;SDS011;58263;48.146;11.440;2022-08-19T05:56:14;12.88;;;8.55;;
70683;SDS011;58263;48.146;11.440;2022-08-19T05:58:41;15.02;;;8.90;;
70683;SDS011;58263;48.146;11.440;2022-08-19T06:01:11;12.23;;;7.30;;
70683;SDS011;58263;48.146;11.440;2022-08-19T06:03:39;11.40;;;7.53;;
70683;SDS011;58263;48.146;11.440;2022-08-19T06:06:05;12.93;;;9.10;;
70683;SDS011;58263;48.146;11.440;2022-08-19T06:08:33;13.07;;;9.07;;
70683;SDS011;58263;48.146;11.440;2022-08-19T06:11:11;14.40;;;8.90;;
70683;SDS011;58263;48.146;11.440;2022-08-19T06:13:47;13.07;;;9.63;;
70683;SDS011;58263;48.146;11.440;2022-08-19T06:16:18;14.73;;;10.20;;
70683;SDS011;58263;48.146;11.440;2022-08-19T06:18:47;14.25;;;10.30;;
70683;SDS011;58263;48.146;11.440;2022-08-19T06:21:16;14.73;;;10.30;;
70683;SDS011;58263;48.146;11.440;2022-08-19T06:23:42;20.08;;;12.30;;
70683;SDS011;58263;48.146;11.440;2022-08-19T06:26:11;20.23;;;12.80;;
70683;SDS011;58263;48.146;11.440;2022-08-19T06:28:37;19.95;;;12.32;;
70683;SDS011;58263;48.146;11.440;2022-08-19T06:31:07;13.48;;;8.23;;
70683;SDS011;58263;48.146;11.440;2022-08-19T06:33:33;12.23;;;8.43;;
70683;SDS011;58263;48.146;11.440;2022-08-19T06:35:58;11.10;;;7.80;;
70683;SDS011;58263;48.146;11.440;2022-08-19T06:38:24;13.97;;;9.07;;
70683;SDS011;58263;48.146;11.440;2022-08-19T06:40:49;15.75;;;10.45;;
70683;SDS011;58263;48.146;11.440;2022-08-19T06:43:15;17.05;;;10.63;;
70683;SDS011;58263;48.146;11.440;2022-08-19T06:45:40;18.10;;;10.98;;
70683;SDS011;58263;48.146;11.440;2022-08-19T06:48:06;18.15;;;11.98;;
70683;SDS011;58263;48.146;11.440;2022-08-19T06:50:32;16.63;;;11.25;;
70683;SDS011;58263;48.146;11.440;2022-08-19T06:52:57;15.50;;;11.48;;
70683;SDS011;58263;48.146;11.440;2022-08-19T06:55:22;14.70;;;9.73;;
70683;SDS011;58263;48.146;11.440;2022-08-19T06:57:48;13.17;;;9.03;;
70683;SDS011;58263;48.146;11.440;2022-08-19T07:00:17;13.60;;;9.80;;
70683;SDS011;58263;48.146;11.440;2022-08-19T07:02:43;13.75;;;9.10;;
70683;SDS011;58263;48.146;11.440;2022-08-19T07:05:09;13.35;;;8.95;;
70683;SDS011;58263;48.146;11.440;2022-08-19T07:07:35;13.73;;;9.05;;
70683;SDS011;58263;48.146;11.440;2022-08-19T07:10:00;12.77;;;9.70;;
70683;SDS011;58263;48.146;11.440;2022-08-19T07:12:27;15.32;;;9.30;;
70683;SDS011;58263;48.146;11.440;2022-08-19T07:14:53;17.50;;;11.32;;
70683;SDS011;58263;48.146;11.440;2022-08-19T07:17:19;23.17;;;12.77;;
70683;SDS011;58263;48.146;11.440;2022-08-19T07:19:45;20.33;;;13.57;;
70683;SDS011;58263;48.146;11.440;2022-08-19T07:22:10;22.00;;;13.15;;
70683;SDS011;58263;48.146;11.440;2022-08-19T07:24:36;20.08;;;14.52;;
70683;SDS011;58263;48.146;11.440;2022-08-19T07:27:03;20.20;;;13.15;;
70683;SDS011;58263;48.146;11.440;2022-08-19T07:29:30;19.60;;;13.30;;
70683;SDS011;58263;48.146;11.440;2022-08-19T07:31:58;18.30;;;13.15;;
70683;SDS011;58263;48.146;11.440;2022-08-19T07:34:25;21.10;;;13.30;;
70683;SDS011;58263;48.146;11.440;2022-08-19T07:36:52;20.33;;;14.07;;
70683;SDS011;58263;48.146;11.440;2022-08-19T07:39:19;19.70;;;13.25;;
70683;SDS011;58263;48.146;11.440;2022-08-19T07:41:49;22.42;;;13.85;;
70683;SDS011;58263;48.146;11.440;2022-08-19T07:44:15;19.70;;;13.65;;
70683;SDS011;58263;48.146;11.440;2022-08-19T07:46:43;21.88;;;14.23;;
70683;SDS011;58263;48.146;11.440;2022-08-19T07:49:11;21.02;;;14.52;;
70683;SDS011;58263;48.146;11.440;2022-08-19T07:51:42;21.52;;;15.13;;
70683;SDS011;58263;48.146;11.440;2022-08-19T07:54:08;19.83;;;14.25;;
70683;SDS011;58263;48.146;11.440;2022-08-19T07:56:34;22.60;;;15.53;;
70683;SDS011;58263;48.146;11.440;2022-08-19T07:58:59;29.02;;;18.40;;
70683;SDS011;58263;48.146;11.440;2022-08-19T08:01:26;28.45;;;16.45;;
70683;SDS011;58263;48.146;11.440;2022-08-19T08:03:53;24.48;;;16.33;;
70683;SDS011;58263;48.146;11.440;2022-08-19T08:06:38;23.67;;;15.35;;
70683;SDS011;58263;48.146;11.440;2022-08-19T08:09:23;22.42;;;14.73;;
70683;SDS011;58263;48.146;11.440;2022-08-19T08:11:56;25.00;;;16.15;;
70683;SDS011;58263;48.146;11.440;2022-08-19T08:14:31;25.48;;;15.73;;
70683;SDS011;58263;48.146;11.440;2022-08-19T08:17:00;22.02;;;15.10;;
70683;SDS011;58263;48.146;11.440;2022-08-19T08:19:26;25.20;;;15.45;;
70683;SDS011;58263;48.146;11.440;2022-08-19T08:21:53;25.52;;;16.17;;
70683;SDS011;58263;48.146;11.440;2022-08-19T08:24:20;24.75;;;16.70;;
70683;SDS011;58263;48.146;11.440;2022-08-19T08:26:46;28.75;;;17.75;;
70683;SDS011;58263;48.146;11.440;2022-08-19T08:29:12;25.08;;;17.35;;
70683;SDS011;58263;48.146;11.440;2022-08-19T08:31:39;26.42;;;17.75;;
70683;SDS011;58263;48.146;11.440;2022-08-19T08:34:05;25.35;;;16.45;;
70683;SDS011;58263;48.146;11.440;2022-08-19T08:36:31;27.25;;;17.35;;
70683;SDS011;58263;48.146;11.440;2022-08-19T08:38:58;28.38;;;17.58;;
70683;SDS011;58263;48.146;11.440;2022-08-19T08:41:32;25.88;;;16.70;;
70683;SDS011;58263;48.146;11.440;2022-08-19T08:44:23;27.48;;;17.55;;
70683;SDS011;58263;48.146;11.440;2022-08-19T08:46:57;24.20;;;15.65;;
70683;SDS011;58263;48.146;11.440;2022-08-19T08:56:55;23.77;;;15.65;;
70683;SDS011;58263;48.146;11.440;2022-08-19T08:59:23;26.90;;;17.50;;
70683;SDS011;58263;48.146;11.440;2022-08-19T09:01:53;25.95;;;16.38;;
70683;SDS011;58263;48.146;11.440;2022-08-19T09:04:18;25.90;;;16.67;;
70683;SDS011;58263;48.146;11.440;2022-08-19T09:07:02;24.10;;;15.68;;
70683;SDS011;58263;48.146;11.440;2022-08-19T09:09:36;23.77;;;14.77;;
70683;SDS011;58263;48.146;11.440;2022-08-19T09:12:24;23.77;;;15.43;;
70683;SDS011;58263;48.146;11.440;2022-08-19T09:15:04;21.45;;;13.57;;
70683;SDS011;58263;48.146;11.440;2022-08-19T09:17:33;24.40;;;14.48;;
70683;SDS011;58263;48.146;11.440;2022-08-19T09:22:44;28.60;;;17.13;;
70683;SDS011;58263;48.146;11.440;2022-08-19T09:25:12;26.80;;;16.77;;
70683;SDS011;58263;48.146;11.440;2022-08-19T09:27:40;29.25;;;15.88;;
70683;SDS011;58263;48.146;11.440;2022-08-19T09:30:07;22.08;;;14.23;;
70683;SDS011;58263;48.146;11.440;2022-08-19T09:32:35;21.60;;;14.45;;
70683;SDS011;58263;48.146;11.440;2022-08-19T09:35:00;22.40;;;13.93;;
70683;SDS011;58263;48.146;11.440;2022-08-19T09:37:26;21.92;;;13.50;;
70683;SDS011;58263;48.146;11.440;2022-08-19T09:39:52;21.38;;;13.32;;
70683;SDS011;58263;48.146;11.440;2022-08-19T09:42:18;23.23;;;14.70;;
70683;SDS011;58263;48.146;11.440;2022-08-19T09:44:44;22.13;;;13.90;;
70683;SDS011;58263;48.146;11.440;2022-08-19T09:47:10;30.27;;;17.90;;
70683;SDS011;58263;48.146;11.440;2022-08-19T09:49:37;21.83;;;14.60;;
70683;SDS011;58263;48.146;11.440;2022-08-19T09:52:04;22.75;;;14.02;;
70683;SDS011;58263;48.146;11.440;2022-08-19T09:54:31;25.35;;;14.18;;
70683;SDS011;58263;48.146;11.440;2022-08-19T09:56:58;19.58;;;12.88;;
70683;SDS011;58263;48.146;11.440;2022-08-19T09:59:25;21.70;;;14.02;;
70683;SDS011;58263;48.146;11.440;2022-08-19T10:01:50;27.27;;;16.88;;
70683;SDS011;58263;48.146;11.440;2022-08-19T10:04:16;23.58;;;14.82;;
70683;SDS011;58263;48.146;11.440;2022-08-19T10:06:42;22.33;;;13.52;;
70683;SDS011;58263;48.146;11.440;2022-08-19T10:09:08;22.63;;;14.07;;
70683;SDS011;58263;48.146;11.440;2022-08-19T10:11:35;19.88;;;13.27;;
70683;SDS011;58263;48.146;11.440;2022-08-19T10:14:04;24.35;;;15.27;;
70683;SDS011;58263;48.146;11.440;2022-08-19T10:16:33;22.75;;;14.68;;
70683;SDS011;58263;48.146;11.440;2022-08-19T10:19:00;21.23;;;14.05;;
70683;SDS011;58263;48.146;11.440;2022-08-19T10:21:27;23.20;;;14.15;;
70683;SDS011;58263;48.146;11.440;2022-08-19T10:23:56;20.83;;;13.20;;
70683;SDS011;58263;48.146;11.440;2022-08-19T10:26:24;23.05;;;13.60;;
70683;SDS011;58263;48.146;11.440;2022-08-19T10:28:52;21.73;;;12.95;;
70683;SDS011;58263;48.146;11.440;2022-08-19T10:31:19;18.92;;;12.70;;
70683;SDS011;58263;48.146;11.440;2022-08-19T10:33:48;18.98;;;12.85;;
70683;SDS011;58263;48.146;11.440;2022-08-19T10:36:18;20.35;;;12.88;;
70683;SDS011;58263;48.146;11.440;2022-08-19T10:38:46;18.90;;;12.68;;
70683;SDS011;58263;48.146;11.440;2022-08-19T10:41:18;19.15;;;12.90;;
70683;SDS011;58263;48.146;11.440;2022-08-19T10:43:47;18.23;;;12.27;;
70683;SDS011;58263;48.146;11.440;2022-08-19T10:46:17;20.40;;;12.13;;
70683;SDS011;58263;48.146;11.440;2022-08-19T10:48:43;25.50;;;15.95;;
70683;SDS011;58263;48.146;11.440;2022-08-19T10:51:10;17.77;;;11.20;;
70683;SDS011;58263;48.146;11.440;2022-08-19T10:53:54;14.35;;;10.45;;
70683;SDS011;58263;48.146;11.440;2022-08-19T10:56:20;12.57;;;9.75;;
70683;SDS011;58263;48.146;11.440;2022-08-19T10:59:04;11.43;;;8.40;;
70683;SDS011;58263;48.146;11.440;2022-08-19T11:01:30;9.15;;;7.15;;
70683;SDS011;58263;48.146;11.440;2022-08-19T11:03:58;7.75;;;5.70;;
70683;SDS011;58263;48.146;11.440;2022-08-19T11:08:54;5.73;;;4.43;;
70683;SDS011;58263;48.146;11.440;2022-08-19T11:11:20;6.18;;;5.10;;
70683;SDS011;58263;48.146;11.440;2022-08-19T11:13:46;5.25;;;4.22;;
70683;SDS011;58263;48.146;11.440;2022-08-19T11:16:15;4.28;;;3.40;;
70683;SDS011;58263;48.146;11.440;2022-08-19T11:18:44;4.32;;;3.47;;
70683;SDS011;58263;48.146;11.440;2022-08-19T11:23:42;3.35;;;2.97;;
70683;SDS011;58263;48.146;11.440;2022-08-19T11:26:08;3.95;;;3.20;;
70683;SDS011;58263;48.146;11.440;2022-08-19T11:28:34;4.00;;;3.25;;
70683;SDS011;58263;48.146;11.440;2022-08-19T11:30:59;3.45;;;3.15;;
70683;SDS011;58263;48.146;11.440;2022-08-19T11:33:25;3.90;;;3.50;;
70683;SDS011;58263;48.146;11.440;2022-08-19T11:35:51;3.83;;;3.03;;
70683;SDS011;58263;48.146;11.440;2022-08-19T11:38:18;5.72;;;4.15;;
70683;SDS011;58263;48.146;11.440;2022-08-19T11:40:43;3.47;;;2.83;;
70683;SDS011;58263;48.146;11.440;2022-08-19T11:43:09;2.75;;;2.30;;
70683;SDS011;58263;48.146;11.440;2022-08-19T11:45:34;2.25;;;2.05;;
70683;SDS011;58263;48.146;11.440;2022-08-19T11:48:00;1.88;;;1.75;;
70683;SDS011;58263;48.146;11.440;2022-08-19T11:50:26;2.13;;;1.83;;
70683;SDS011;58263;48.146;11.440;2022-08-19T11:52:55;1.93;;;1.83;;
70683;SDS011;58263;48.146;11.440;2022-08-19T11:55:22;1.80;;;1.70;;
70683;SDS011;58263;48.146;11.440;2022-08-19T11:57:48;1.77;;;1.52;;
70683;SDS011;58263;48.146;11.440;2022-08-19T12:00:14;1.70;;;1.60;;
70683;SDS011;58263;48.146;11.440;2022-08-19T12:02:40;1.52;;;1.42;;
70683;SDS011;58263;48.146;11.440;2022-08-19T12:05:05;1.42;;;1.40;;
70683;SDS011;58263;48.146;11.440;2022-08-19T12:07:32;1.80;;;1.70;;
70683;SDS011;58263;48.146;11.440;2022-08-19T12:09:58;1.50;;;1.40;;
70683;SDS011;58263;48.146;11.440;2022-08-19T12:12:24;2.33;;;1.60;;
70683;SDS011;58263;48.146;11.440;2022-08-19T12:14:51;2.00;;;1.90;;
70683;SDS011;58263;48.146;11.440;2022-08-19T12:17:22;1.70;;;1.60;;
70683;SDS011;58263;48.146;11.440;2022-08-19T12:19:48;1.92;;;1.55;;
70683;SDS011;58263;48.146;11.440;2022-08-19T12:22:13;3.23;;;2.57;;
70683;SDS011;58263;48.146;11.440;2022-08-19T12:24:42;1.80;;;1.70;;
70683;SDS011;58263;48.146;11.440;2022-08-19T12:27:08;2.10;;;1.70;;
70683;SDS011;58263;48.146;11.440;2022-08-19T12:29:33;2.35;;;2.03;;
70683;SDS011;58263;48.146;11.440;2022-08-19T12:31:59;1.37;;;1.27;;
70683;SDS011;58263;48.146;11.440;2022-08-19T12:34:28;1.45;;;1.25;;
70683;SDS011;58263;48.146;11.440;2022-08-19T12:36:57;1.88;;;1.77;;
70683;SDS011;58263;48.146;11.440;2022-08-19T12:39:25;3.58;;;1.70;;
70683;SDS011;58263;48.146;11.440;2022-08-19T12:41:51;1.67;;;1.58;;
70683;SDS011;58263;48.146;11.440;2022-08-19T12:44:16;2.67;;;2.40;;
70683;SDS011;58263;48.146;11.440;2022-08-19T12:46:41;2.20;;;2.00;;
70683;SDS011;58263;48.146;11.440;2022-08-19T12:49:07;2.10;;;1.90;;
70683;SDS011;58263;48.146;11.440;2022-08-19T12:51:32;2.40;;;2.20;;
70683;SDS011;58263;48.146;11.440;2022-08-19T12:53:57;1.77;;;1.67;;
70683;SDS011;58263;48.146;11.440;2022-08-19T12:56:23;2.80;;;1.63;;
70683;SDS011;58263;48.146;11.440;2022-08-19T12:58:48;1.60;;;1.50;;
70683;SDS011;58263;48.146;11.440;2022-08-19T13:01:14;1.70;;;1.60;;
70683;SDS011;58263;48.146;11.440;2022-08-19T13:03:41;2.03;;;1.83;;
70683;SDS011;58263;48.146;11.440;2022-08-19T13:06:07;1.60;;;1.50;;
70683;SDS011;58263;48.146;11.440;2022-08-19T13:08:34;1.95;;;1.80;;
70683;SDS011;58263;48.146;11.440;2022-08-19T13:11:13;2.25;;;1.60;;
70683;SDS011;58263;48.146;11.440;2022-08-19T13:13:43;1.60;;;1.50;;
70683;SDS011;58263;48.146;11.440;2022-08-19T13:16:10;2.28;;;1.83;;
70683;SDS011;58263;48.146;11.440;2022-08-19T13:18:37;2.20;;;2.00;;
70683;SDS011;58263;48.146;11.440;2022-08-19T13:21:04;2.20;;;2.00;;
70683;SDS011;58263;48.146;11.440;2022-08-19T13:23:31;2.20;;;2.00;;
70683;SDS011;58263;48.146;11.440;2022-08-19T13:26:02;2.03;;;1.92;;
70683;SDS011;58263;48.146;11.440;2022-08-19T13:28:29;2.20;;;2.00;;
70683;SDS011;58263;48.146;11.440;2022-08-19T13:31:16;1.90;;;1.80;;
70683;SDS011;58263;48.146;11.440;2022-08-19T13:34:02;2.00;;;1.90;;
70683;SDS011;58263;48.146;11.440;2022-08-19T13:36:27;1.98;;;1.88;;
70683;SDS011;58263;48.146;11.440;2022-08-19T13:38:52;2.47;;;2.27;;
70683;SDS011;58263;48.146;11.440;2022-08-19T13:41:18;2.15;;;2.05;;
70683;SDS011;58263;48.146;11.440;2022-08-19T13:43:44;3.28;;;2.10;;
70683;SDS011;58263;48.146;11.440;2022-08-19T13:46:09;2.67;;;2.47;;
70683;SDS011;58263;48.146;11.440;2022-08-19T13:48:38;2.35;;;2.15;;
70683;SDS011;58263;48.146;11.440;2022-08-19T13:51:05;2.83;;;2.58;;
70683;SDS011;58263;48.146;11.440;2022-08-19T13:53:34;2.78;;;2.58;;
70683;SDS011;58263;48.146;11.440;2022-08-19T13:56:07;4.13;;;2.45;;
70683;SDS011;58263;48.146;11.440;2022-08-19T13:58:33;3.05;;;2.60;;
70683;SDS011;58263;48.146;11.440;2022-08-19T14:00:59;3.08;;;2.72;;
70683;SDS011;58263;48.146;11.440;2022-08-19T14:03:25;3.83;;;3.03;;
70683;SDS011;58263;48.146;11.440;2022-08-19T14:05:51;2.80;;;2.60;;
70683;SDS011;58263;48.146;11.440;2022-08-19T14:08:16;2.60;;;2.40;;
70683;SDS011;58263;48.146;11.440;2022-08-19T14:10:42;2.55;;;2.10;;
70683;SDS011;58263;48.146;11.440;2022-08-19T14:13:15;2.80;;;2.60;;
70683;SDS011;58263;48.146;11.440;2022-08-19T14:15:45;2.92;;;2.55;;
70683;SDS011;58263;48.146;11.440;2022-08-19T14:18:11;3.35;;;2.40;;
70683;SDS011;58263;48.146;11.440;2022-08-19T14:20:36;2.30;;;2.10;;
70683;SDS011;58263;48.146;11.440;2022-08-19T14:23:02;2.03;;;1.92;;
70683;SDS011;58263;48.146;11.440;2022-08-19T14:25:30;2.10;;;1.98;;
70683;SDS011;58263;48.146;11.440;2022-08-19T14:27:57;8.52;;;6.32;;
70683;SDS011;58263;48.146;11.440;2022-08-19T14:30:24;4.25;;;3.03;;
70683;SDS011;58263;48.146;11.440;2022-08-19T14:32:54;3.00;;;2.25;;
70683;SDS011;58263;48.146;11.440;2022-08-19T14:35:21;1.90;;;1.80;;
70683;SDS011;58263;48.146;11.440;2022-08-19T14:37:47;2.25;;;2.05;;
70683;SDS011;58263;48.146;11.440;2022-08-19T14:40:14;2.20;;;2.00;;
70683;SDS011;58263;48.146;11.440;2022-08-19T14:42:41;2.58;;;2.13;;
70683;SDS011;58263;48.146;11.440;2022-08-19T14:45:07;2.13;;;1.92;;
70683;SDS011;58263;48.146;11.440;2022-08-19T14:47:33;2.10;;;2.00;;
70683;SDS011;58263;48.146;11.440;2022-08-19T14:49:58;2.50;;;2.27;;
70683;SDS011;58263;48.146;11.440;2022-08-19T14:52:24;3.78;;;2.20;;